• Join FlightAware (Why Join?)
  • Login
  • US Flag 
02:34PM EST


 

Airport Tracker/Info


-or-


 

Live Flight TrackerFlight Track Log ✈ MAS2742 ✈ 12-Jul-2013 ✈ WMKK / KUL - WBGB / BTU

Flight Track Log - Related Links

Times and Time Zones

All times are in EDT time to prevent confusion due to time zone crossing. See the MAS2742 flight status page for this flight to view local times or setup timezone preferences in your user account.

Time Position Orientation Groundspeed Altitude Reporting Facility
EDT Latitude Longitude Course Direction KTS MPH feet Rate Location/Type
11:03PM 2.8120 101.6810 328° Northwest 205 236 1,900  Level FlightAware
11:03PM 2.8360 101.6660 328° Northwest 210 242 2,000 1,440 Climbing FlightAware
11:04PM 2.8720 101.6810 23° Northeast 262 302 3,300 2,580 Climbing FlightAware
11:04PM 2.9140 101.7070 32° Northeast 272 313 4,900 2,340 Climbing FlightAware
11:05PM 2.9380 101.7220 32° Northeast 274 315 5,900 2,700 Climbing FlightAware
11:05PM 2.9650 101.7390 32° Northeast 275 316 7,100 2,700 Climbing FlightAware
11:06PM 3.0020 101.7630 33° Northeast 278 320 8,500 2,580 Climbing FlightAware
11:06PM 3.0300 101.7800 31° Northeast 284 327 9,600 1,920 Climbing FlightAware
11:07PM 3.0790 101.8230 41° Northeast 319 367 10,900 1,560 Climbing FlightAware
11:08PM 3.0900 101.8870 80° East 357 411 12,000 2,220 Climbing FlightAware
11:08PM 3.1010 101.9600 81° East 359 413 14,100 2,580 Climbing FlightAware
11:09PM 3.1110 102.0220 81° East 371 427 15,600 2,280 Climbing FlightAware
11:10PM 3.1230 102.0990 81° East 384 442 17,300 2,400 Climbing FlightAware
11:11PM 3.1440 102.2300 81° East 397 457 20,200 2,280 Climbing FlightAware
11:12PM 3.1570 102.3150 81° East 404 465 21,800 1,980 Climbing FlightAware
11:13PM 3.1740 102.4080 80° East 413 475 23,400 1,740 Climbing FlightAware
11:13PM 3.1880 102.4760 78° East 421 484 24,400 1,680 Climbing FlightAware
11:14PM 3.2040 102.5500 78° East 427 491 25,500 1,440 Climbing FlightAware
11:15PM 3.2240 102.6500 79° East 433 498 26,600 900 Climbing FlightAware
11:15PM 3.2410 102.7340 79° East 432 497 27,000 240 Climbing FlightAware
11:16PM 3.2590 102.8180 78° East 431 496 27,000  Level FlightAware
11:17PM 3.2760 102.9020 79° East 430 495 27,000  Level FlightAware
11:17PM 3.2890 102.9630 78° East 430 495 27,000  Level FlightAware
11:18PM 3.3060 103.0430 78° East 430 495 27,000  Level FlightAware
11:19PM 3.3190 103.1040 78° East 430 495 27,000  Level FlightAware
11:19PM 3.3430 103.2280 79° East 436 502 27,000  Level FlightAware
11:20PM 3.3610 103.3130 78° East 436 502 27,000  Level FlightAware
11:21PM 3.3790 103.3990 78° East 436 502 27,000  Level FlightAware
11:22PM 3.3910 103.4600 79° East 436 502 27,000  Level FlightAware
11:22PM 3.3460 103.5570 115° Southeast 435 501 27,000  Level FlightAware
11:23PM 3.3280 103.6210 106° East 435 501 27,000  Level FlightAware
11:24PM 3.3040 103.7090 105° East 435 501 27,000 1,140 Level FlightAware
11:25PM 3.2690 103.8360 105° East 431 496 29,000 1,020 Climbing FlightAware
11:26PM 3.2420 103.9350 105° East 432 497 29,000  Level FlightAware
11:26PM 3.2240 104.0000 106° East 431 496 29,000  Level FlightAware
11:27PM 3.1960 104.0990 106° East 431 496 29,000  Level FlightAware
11:28PM 3.1780 104.1660 105° East 431 496 29,000  Level FlightAware
11:29PM 3.1570 104.2450 105° East 431 496 29,000  Level FlightAware
11:29PM 3.1260 104.3550 106° East 429 494 29,000  Level FlightAware
11:30PM 3.1060 104.4280 105° East 429 494 29,000  Level FlightAware
11:30PM 3.0950 104.5070 98° East 428 493 29,000  Level FlightAware
11:31PM 3.0850 104.5970 96° East 428 493 29,000 120 Level FlightAware
11:32PM 3.0770 104.6770 96° East 446 513 29,200 180 Climbing FlightAware
11:33PM 3.0700 104.7530 95° East 451 519 29,300 1,500 Climbing FlightAware
11:33PM 3.0590 104.8560 96° East 446 513 31,400 2,280 Climbing FlightAware
11:34PM 3.0510 104.9370 96° East 440 506 32,500 1,020 Climbing FlightAware
11:35PM 3.0450 105.0100 95° East 440 506 32,800 180 Climbing FlightAware
11:35PM 3.0390 105.0720 96° East 440 506 32,800 1,620 Level FlightAware
11:36PM 3.0280 105.1820 96° East 444 511 35,000 2,340 Climbing FlightAware
11:37PM 3.0070 105.2510 107° East 438 504 35,900 960 Climbing FlightAware
11:37PM 2.9760 105.3430 109° East 436 502 36,500 660 Climbing FlightAware
11:38PM 2.9430 105.4340 110° East 434 499 37,000 360 Climbing FlightAware
11:39PM 2.9170 105.5100 109° East 436 502 37,000  Level FlightAware
11:40PM 2.8870 105.5960 109° East 437 503 37,000  Level FlightAware
11:41PM 2.8550 105.6930 108° East 437 503 37,000  Level FlightAware
11:41PM 2.8240 105.7780 110° East 437 503 37,000  Level FlightAware
11:42PM 2.7940 105.8660 109° East 437 503 37,000  Level FlightAware
11:43PM 2.7720 105.9300 109° East 435 501 37,000  Level FlightAware
11:43PM 2.7450 106.0120 108° East 434 499 37,000  Level FlightAware
11:44PM 2.7140 106.0990 110° East 433 498 37,000  Level FlightAware
11:45PM 2.6850 106.1830 109° East 432 497 37,000  Level FlightAware
11:45PM 2.6580 106.2600 109° East 432 497 37,000  Level FlightAware
11:46PM 2.6350 106.3280 109° East 432 497 37,000  Level FlightAware
11:47PM 2.6030 106.4230 109° East 432 497 37,000  Level FlightAware
11:48PM 2.5730 106.5080 109° East 434 499 37,000  Level FlightAware
11:48PM 2.5420 106.5970 109° East 433 498 37,000  Level FlightAware
11:49PM 2.5170 106.6700 109° East 434 499 37,000  Level FlightAware
11:50PM 2.4730 106.7970 109° East 434 499 37,000  Level FlightAware
11:51PM 2.4480 106.8690 109° East 436 502 37,000  Level FlightAware
11:51PM 2.4270 106.9320 108° East 436 502 37,000  Level FlightAware
11:52PM 2.4020 107.0110 108° East 436 502 37,000  Level FlightAware
11:53PM 2.3820 107.0690 109° East 436 502 37,000  Level FlightAware
11:54PM 2.3420 107.1970 107° East 442 509 37,000  Level FlightAware
11:54PM 2.3140 107.2950 106° East 442 509 37,000  Level FlightAware
11:55PM 2.2970 107.3570 105° East 443 510 37,000  Level FlightAware
11:56PM 2.2740 107.4400 105° East 441 507 37,000  Level FlightAware
11:56PM 2.2530 107.5150 106° East 442 509 37,000  Level FlightAware
11:57PM 2.2350 107.5820 105° East 442 509 37,000  Level FlightAware
11:58PM 2.2050 107.6870 106° East 443 510 37,000  Level FlightAware
11:58PM 2.1880 107.7520 105° East 443 510 37,000  Level FlightAware
11:59PM 2.1660 107.8330 105° East 443 510 37,000  Level FlightAware
12:00AM 2.1490 107.8960 105° East 443 510 37,000  Level FlightAware
12:00AM 2.1330 107.9560 105° East 443 510 37,000  Level FlightAware
12:01AM 2.1120 108.0370 105° East 443 510 37,000  Level FlightAware
12:01AM 2.2660 108.1160 27° Northeast 444 511 37,000  Level FlightAware
12:02AM 2.2980 108.2010 69° East 443 510 37,000  Level FlightAware
12:03AM 2.3270 108.2740 68° East 442 509 37,000  Level FlightAware
12:04AM 2.3580 108.3560 69° East 442 509 37,000  Level FlightAware
12:04AM 2.3900 108.4380 69° East 440 506 37,000  Level FlightAware
12:05AM 2.4130 108.4990 69° East 440 506 37,000  Level FlightAware
12:06AM 2.4470 108.5860 69° East 439 505 37,000  Level FlightAware
12:06AM 2.4760 108.6620 69° East 439 505 37,000  Level FlightAware
12:07AM 2.5100 108.7510 69° East 438 504 37,000  Level FlightAware
12:08AM 2.5340 108.8130 69° East 438 504 37,000  Level FlightAware
12:08AM 2.5550 108.8670 69° East 438 504 37,000  Level FlightAware
12:09AM 2.5790 108.9390 72° East 436 502 37,000  Level FlightAware
12:09AM 2.5910 109.0170 81° East 434 499 37,000  Level FlightAware
12:10AM 2.6020 109.0940 82° East 434 499 37,000  Level FlightAware
12:11AM 2.6200 109.2200 82° East 433 498 37,000  Level FlightAware
12:12AM 2.6320 109.3040 82° East 434 499 37,000  Level FlightAware
12:12AM 2.6440 109.3910 82° East 434 499 37,000  Level FlightAware
12:13AM 2.6560 109.4710 81° East 434 499 37,000  Level FlightAware
12:14AM 2.6680 109.5590 82° East 435 501 37,000  Level FlightAware
12:15AM 2.6800 109.6390 81° East 436 502 37,000  Level FlightAware
12:15AM 2.6900 109.7100 82° East 437 503 37,000  Level FlightAware
12:16AM 2.7010 109.7910 82° East 438 504 37,000  Level FlightAware
12:17AM 2.7140 109.8830 82° East 439 505 37,000  Level FlightAware
12:17AM 2.7230 109.9450 82° East 440 506 37,000  Level FlightAware
12:18AM 2.7340 110.0270 82° East 440 506 37,000  Level FlightAware
12:18AM 2.7450 110.1000 81° East 439 505 37,000  Level FlightAware
12:19AM 2.7570 110.1870 82° East 438 504 37,000  Level FlightAware
12:20AM 2.7690 110.2720 82° East 437 503 37,000  Level FlightAware
12:20AM 2.7800 110.3480 82° East 435 501 37,000  Level FlightAware
12:21AM 2.7890 110.4150 82° East 435 501 37,000  Level FlightAware
12:22AM 2.8010 110.4920 81° East 435 501 37,000  Level FlightAware
12:22AM 2.8180 110.5720 78° East 436 502 37,000  Level FlightAware
12:23AM 2.8350 110.6520 78° East 437 503 37,000  Level FlightAware
12:23AM 2.8460 110.7070 79° East 438 504 37,000 -300 Level FlightAware
12:24AM 2.8640 110.7900 78° East 439 505 36,700 -780 Descending FlightAware
12:25AM 2.8810 110.8720 78° East 441 507 36,000 -1,020 Descending FlightAware
12:25AM 2.8920 110.9250 78° East 443 510 35,600 -720 Descending FlightAware
12:26AM 2.9150 111.0370 78° East 445 512 35,000 -1,020 Descending FlightAware
12:27AM 2.9340 111.1290 78° East 448 516 33,900 -840 Descending FlightAware
12:28AM 2.9500 111.2020 78° East 448 516 33,900 -1,440 Level FlightAware
12:28AM 2.9690 111.2980 79° East 434 499 31,900 -1,860 Descending FlightAware
12:29AM 2.9910 111.4010 78° East 427 491 30,800 -720 Descending FlightAware
12:30AM 3.0030 111.4600 78° East 427 491 30,800 -2,880 Level FlightAware
12:31AM 3.0230 111.5560 78° East 408 470 27,100 -2,700 Descending FlightAware
12:31AM 3.0390 111.6300 78° East 407 468 26,900 -180 Descending FlightAware
12:32AM 3.0530 111.6960 78° East 407 468 26,900  Level FlightAware
12:33AM 3.0650 111.7520 78° East 407 468 26,900  Level FlightAware
12:33AM 3.0810 111.8290 78° East 407 468 26,900  Level FlightAware
12:34AM 3.0930 111.8850 78° East 407 468 26,900  Level FlightAware
12:37AM 3.0991 112.1056 88° East  Level Estimated
12:38AM 3.1016 112.1969 88° East  Level Estimated
12:39AM 3.1041 112.2881 88° East  Level Estimated
12:40AM 3.1066 112.3794 88° East  Level Estimated
12:41AM 3.1091 112.4707 88° East  Level Estimated
12:42AM 3.1115 112.5620 88° East  Level Estimated
12:43AM 3.1140 112.6533 88° East  Level Estimated
12:44AM 3.1165 112.7445 88° East  Level Estimated
12:45AM 3.1189 112.8358 88° East  Level Estimated
12:46AM 3.1214 112.9271 88° East  Level Estimated
12:47AM 3.1238 113.0184 88° East  Level Estimated
12:48AM 3.1239 113.0205 88° East  Level Estimated
12:49AM 3.1239 113.0205 90° East  Level Estimated
12:50AM 3.1239 113.0205 90° East  Level Estimated
12:51AM 3.1239 113.0205 90° East  Level Estimated
12:52AM 3.1239 113.0205 90° East  Level Estimated
12:53AM 3.1239 113.0205 90° East  Level Estimated
12:54AM 3.1239 113.0205 90° East  Level Estimated
12:55AM 3.1239 113.0205 90° East  Level Estimated
12:56AM 3.1239 113.0205 90° East  Level Estimated
12:57AM 3.1239 113.0205 90° East  Level Estimated
12:58AM 3.1239 113.0205 90° East  Level Estimated
12:59AM 3.1239 113.0205 90° East  Level Estimated
01:00AM 3.1239 113.0205 90° East  Level Estimated